WU Station Historical Data
 
Daily Summary for October 21, 2017 Units:  English    Metric   Both
« Previous Day
Next Day »
Daily Weekly Monthly Yearly Custom
  Current: High: Low: Average:
Temperature: 65.0 °F 68.3 °F 65.0 °F 66.9 °F
Dew Point: -18.0 °F -15.7 °F -18.0 °F -16.6 °F
Humidity: 3 % 3 % 3 % 3 %
Wind Speed: 0.0 mph 2.0 mph 0.0 mph 0.2 mph
Wind Gust: 0.0 mph 5.0 mph - -
Wind:Calm - - East
Pressure: 30.08 in 30.11 in 30.08 in -
Precipitation: 0.00 in      
Historical Graphs
 
 
Tabular Data for October 21, 2017
Time Temperature Dew Point Pressure Wind Wind Speed Wind Gust Humidity Rainfall Rate (Hourly) solar Conditions
00:00 68.3 °F -15.7 °F 30.11 in Calm   2.0 mph 3 % 0.00 in 0 W/m2
00:05 68.2 °F -15.8 °F 30.11 in Calm   2.0 mph 3 % 0.00 in 0 W/m2
00:10 68.2 °F -15.8 °F 30.11 in Calm   1.0 mph 3 % 0.00 in 0 W/m2
00:15 68.2 °F -15.8 °F 30.11 in Calm   2.0 mph 3 % 0.00 in 0 W/m2
00:20 68.2 °F -15.8 °F 30.11 in East 1.0 mph 2.0 mph 3 % 0.00 in 0 W/m2
00:21 68.2 °F -15.8 °F 30.11 in Calm   2.0 mph 3 % 0.00 in 0 W/m2
00:26 68.2 °F -15.8 °F 30.11 in East 1.0 mph 2.0 mph 3 % 0.00 in 0 W/m2
00:31 68.2 °F -15.8 °F 30.11 in East 1.0 mph 5.0 mph 3 % 0.00 in 0 W/m2
00:36 68.1 °F -15.9 °F 30.11 in Calm   5.0 mph 3 % 0.00 in 0 W/m2
00:38 68.0 °F -15.9 °F 30.11 in Calm   3.0 mph 3 % 0.00 in 0 W/m2
00:43 67.9 °F -16.0 °F 30.11 in Calm   3.0 mph 3 % 0.00 in 0 W/m2
00:48 67.9 °F -16.0 °F 30.10 in Calm   3.0 mph 3 % 0.00 in 0 W/m2
00:53 67.7 °F -16.1 °F 30.10 in East 2.0 mph 3.0 mph 3 % 0.00 in 0 W/m2
00:58 67.7 °F -16.1 °F 30.10 in Calm   3.0 mph 3 % 0.00 in 0 W/m2
01:03 67.6 °F -16.2 °F 30.11 in East 1.0 mph 3.0 mph 3 % 0.00 in 0 W/m2
01:08 67.5 °F -16.3 °F 30.10 in Calm   2.0 mph 3 % 0.00 in 0 W/m2
01:13 67.5 °F -16.3 °F 30.10 in Calm   2.0 mph 3 % 0.00 in 0 W/m2
01:18 67.4 °F -16.3 °F 30.10 in Calm     3 % 0.00 in 0 W/m2
01:23 67.3 °F -16.4 °F 30.10 in Calm     3 % 0.00 in 0 W/m2
01:28 67.3 °F -16.4 °F 30.10 in Calm     3 % 0.00 in 0 W/m2
01:33 67.1 °F -16.5 °F 30.10 in Calm     3 % 0.00 in 0 W/m2
01:38 67.1 °F -16.5 °F 30.10 in Calm     3 % 0.00 in 0 W/m2
01:43 67.0 °F -16.6 °F 30.10 in Calm     3 % 0.00 in 0 W/m2
01:48 66.9 °F -16.7 °F 30.10 in Calm     3 % 0.00 in 0 W/m2
01:53 66.8 °F -16.7 °F 30.10 in Calm     3 % 0.00 in 0 W/m2
01:58 66.8 °F -16.7 °F 30.10 in Calm   2.0 mph 3 % 0.00 in 0 W/m2
02:03 66.8 °F -16.7 °F 30.10 in Calm   2.0 mph 3 % 0.00 in 0 W/m2
02:08 66.7 °F -16.8 °F 30.10 in Calm   2.0 mph 3 % 0.00 in 0 W/m2
02:13 66.7 °F -16.8 °F 30.09 in East 1.0 mph 2.0 mph 3 % 0.00 in 0 W/m2
02:18 66.7 °F -16.8 °F 30.09 in East 1.0 mph 3.0 mph 3 % 0.00 in 0 W/m2
02:23 66.7 °F -16.8 °F 30.09 in Calm   3.0 mph 3 % 0.00 in 0 W/m2
02:28 66.7 °F -16.8 °F 30.09 in Calm   3.0 mph 3 % 0.00 in 0 W/m2
02:33 66.5 °F -16.9 °F 30.09 in Calm   3.0 mph 3 % 0.00 in 0 W/m2
02:38 66.4 °F -17.0 °F 30.09 in Calm   2.0 mph 3 % 0.00 in 0 W/m2
02:43 66.3 °F -17.1 °F 30.09 in Calm   1.0 mph 3 % 0.00 in 0 W/m2
02:48 66.3 °F -17.1 °F 30.09 in Calm     3 % 0.00 in 0 W/m2
02:53 66.2 °F -17.2 °F 30.09 in Calm     3 % 0.00 in 0 W/m2
02:58 66.0 °F -17.3 °F 30.09 in Calm     3 % 0.00 in 0 W/m2
03:03 65.9 °F -17.4 °F 30.09 in Calm     3 % 0.00 in 0 W/m2
03:08 65.7 °F -17.5 °F 30.08 in Calm   3.0 mph 3 % 0.00 in 0 W/m2
03:13 65.6 °F -17.6 °F 30.08 in Calm   3.0 mph 3 % 0.00 in 0 W/m2
03:18 65.5 °F -17.6 °F 30.08 in Calm   3.0 mph 3 % 0.00 in 0 W/m2
03:23 65.4 °F -17.7 °F 30.08 in Calm     3 % 0.00 in 0 W/m2
03:28 65.3 °F -17.8 °F 30.08 in Calm     3 % 0.00 in 0 W/m2
03:29 65.3 °F -17.8 °F 30.08 in Calm     3 % 0.00 in 0 W/m2
03:34 65.2 °F -17.8 °F 30.08 in Calm     3 % 0.00 in 0 W/m2
03:39 65.0 °F -18.0 °F 30.08 in Calm     3 % 0.00 in 0 W/m2
Ellisville, Mississippi, USA
Compliments of Weather Underground - 4.25 mb